createdAt,value
2018-06-04T02:13:39.010Z,3
2018-06-04T02:24:09.734Z,7
2018-06-04T02:28:09.946Z,10
2018-06-04T02:30:40.083Z,13
2018-06-04T02:33:10.645Z,17
2018-06-04T02:34:40.733Z,20
2018-06-04T02:36:10.885Z,23
2018-06-04T02:37:40.942Z,27
2018-06-04T02:38:41.043Z,30
2018-06-04T02:39:41.036Z,33
2018-06-04T02:40:11.115Z,37
2018-06-04T02:41:11.192Z,40
2018-06-04T02:41:41.207Z,43
2018-06-04T02:42:41.299Z,47
2018-06-04T02:43:11.295Z,50
2018-06-04T02:43:41.355Z,53
2018-06-04T02:44:11.365Z,57
2018-06-04T02:44:41.406Z,60
2018-06-04T02:45:41.434Z,63
2018-06-04T02:46:11.523Z,67
2018-06-04T02:46:41.498Z,70
2018-06-04T02:47:11.586Z,73
2018-06-04T02:47:41.545Z,77
2018-06-04T02:48:11.587Z,83
2018-06-04T02:48:41.603Z,87
2018-06-04T02:49:11.698Z,90
2018-06-04T02:49:41.651Z,93
2018-06-04T02:50:11.756Z,100
2018-06-04T02:50:41.733Z,103
2018-06-04T02:51:11.788Z,110
2018-06-04T02:51:41.776Z,113
2018-06-04T02:52:11.812Z,120
2018-06-04T02:52:41.842Z,127
2018-06-04T02:53:11.942Z,130
2018-06-04T02:53:41.915Z,137
2018-06-04T02:54:12.000Z,143
2018-06-04T02:54:41.969Z,150
2018-06-04T02:55:11.992Z,157
2018-06-04T02:55:42.058Z,160
2018-06-04T02:56:12.060Z,167
2018-06-04T02:56:42.090Z,173
2018-06-04T02:57:12.127Z,180
2018-06-04T02:57:42.202Z,187
2018-06-04T02:58:12.265Z,193
2018-06-04T02:58:42.225Z,203
2018-06-04T02:59:12.302Z,210
2018-06-04T02:59:42.311Z,213
2018-06-04T03:00:12.346Z,223
2018-06-04T03:00:42.332Z,230
2018-06-04T03:01:12.466Z,240
2018-06-04T03:01:42.406Z,250
2018-06-04T03:02:12.485Z,257
2018-06-04T03:02:42.469Z,267
2018-06-04T03:03:12.532Z,277
2018-06-04T03:03:42.543Z,287
2018-06-04T03:04:12.586Z,297
2018-06-04T03:04:42.652Z,307
2018-06-04T03:05:12.765Z,317
2018-06-04T03:05:42.714Z,327
2018-06-04T03:06:12.711Z,340
2018-06-04T03:06:42.705Z,350
2018-06-04T03:07:12.781Z,360
2018-06-04T03:07:42.798Z,373
2018-06-04T03:08:12.842Z,387
2018-06-04T03:08:42.863Z,400
2018-06-04T03:09:12.894Z,413
2018-06-04T03:09:42.905Z,427
2018-06-04T03:10:12.976Z,440
2018-06-04T03:10:42.958Z,453
2018-06-04T03:11:13.032Z,467
2018-06-04T03:11:43.018Z,477
2018-06-04T03:12:13.037Z,490
2018-06-04T03:12:43.071Z,503
2018-06-04T03:13:13.109Z,517
2018-06-04T03:13:43.166Z,530
2018-06-04T03:14:13.161Z,543
2018-06-04T03:14:43.196Z,557
2018-06-04T03:15:13.295Z,570
2018-06-04T03:15:43.298Z,587
2018-06-04T03:16:13.326Z,600
2018-06-04T03:16:43.407Z,617
2018-06-04T03:17:13.354Z,633
2018-06-04T03:17:43.422Z,643
2018-06-04T03:18:13.450Z,660
2018-06-04T03:18:43.471Z,677
2018-06-04T03:19:13.534Z,693
2018-06-04T03:19:43.544Z,713
2018-06-04T03:20:13.546Z,730
2018-06-04T03:20:43.588Z,747
2018-06-04T03:21:13.631Z,763
2018-06-04T03:21:43.631Z,783
2018-06-04T03:22:13.668Z,800
2018-06-04T03:22:43.727Z,817
2018-06-04T03:23:13.733Z,833
2018-06-04T03:23:43.787Z,853
2018-06-04T03:24:13.805Z,867
2018-06-04T03:24:43.812Z,883
2018-06-04T03:25:13.918Z,903
2018-06-04T03:25:43.868Z,920
2018-06-04T03:26:13.900Z,940
2018-06-04T03:26:43.934Z,957
2018-06-04T03:27:13.971Z,977
2018-06-04T03:27:44.007Z,997
2018-06-04T03:28:14.033Z,1017
2018-06-04T03:28:44.064Z,1037
2018-06-04T03:29:14.081Z,1057
2018-06-04T03:29:44.162Z,1073
2018-06-04T03:30:14.188Z,1097
2018-06-04T03:30:44.210Z,1120
2018-06-04T03:31:14.209Z,1143
2018-06-04T03:31:44.246Z,1167
2018-06-04T03:32:14.303Z,1190
2018-06-04T03:32:44.355Z,1213
2018-06-04T03:33:14.412Z,1237
2018-06-04T03:33:44.449Z,1257
2018-06-04T03:34:14.404Z,1280
2018-06-04T03:34:44.524Z,1297
2018-06-04T03:35:14.553Z,1317
2018-06-04T03:35:44.507Z,1333
2018-06-04T03:36:14.542Z,1353
2018-06-04T03:36:44.584Z,1370
2018-06-04T03:37:14.598Z,1387
2018-06-04T03:37:44.673Z,1407
2018-06-04T03:38:14.653Z,1427
2018-06-04T03:38:44.723Z,1447
2018-06-04T03:39:14.803Z,1470
2018-06-04T03:39:44.763Z,1493
2018-06-04T03:40:14.815Z,1513
2018-06-04T03:40:44.805Z,1537
2018-06-04T03:41:14.848Z,1567
2018-06-04T03:41:44.864Z,1593
2018-06-04T03:42:14.916Z,1623
2018-06-04T03:42:44.927Z,1653
2018-06-04T03:43:14.956Z,1687
2018-06-04T03:43:45.022Z,1710
2018-06-04T03:44:15.043Z,1733
2018-06-04T03:44:45.056Z,1753
2018-06-04T03:45:15.108Z,1777
2018-06-04T03:45:45.116Z,1797
2018-06-04T03:46:15.138Z,1820
2018-06-04T03:46:45.185Z,1843
2018-06-04T03:47:15.231Z,1867
2018-06-04T03:47:45.238Z,1893
2018-06-04T03:48:15.300Z,1920
2018-06-04T03:48:45.292Z,1940
2018-06-04T03:49:15.369Z,1963
2018-06-04T03:49:45.350Z,1987
2018-06-04T03:50:15.471Z,2010
2018-06-04T03:50:45.498Z,2033
2018-06-04T03:51:15.524Z,2060
2018-06-04T03:51:45.513Z,2083
2018-06-04T03:52:15.539Z,2110
2018-06-04T03:52:45.631Z,2133
2018-06-04T03:53:15.612Z,2160
2018-06-04T03:53:45.628Z,2190
2018-06-04T03:54:15.651Z,2223
2018-06-04T03:54:45.712Z,2260
2018-06-04T03:55:15.775Z,2297
2018-06-04T03:55:45.749Z,2330
2018-06-04T03:56:15.785Z,2360
2018-06-04T03:56:45.815Z,2393
2018-06-04T03:57:15.845Z,2427
2018-06-04T03:57:45.859Z,2457
2018-06-04T03:58:15.889Z,2487
2018-06-04T03:58:45.957Z,2517
2018-06-04T03:59:15.968Z,2550
2018-06-04T03:59:45.973Z,2577
2018-06-04T04:00:16.042Z,2613
2018-06-04T04:00:46.093Z,2647
2018-06-04T04:01:16.091Z,2680
2018-06-04T04:01:46.133Z,2717
2018-06-04T04:02:16.168Z,2750
2018-06-04T04:02:46.143Z,2777
2018-06-04T04:03:16.215Z,2807
2018-06-04T04:03:46.267Z,2833
2018-06-04T04:04:16.262Z,2860
2018-06-04T04:04:46.268Z,2880
2018-06-04T04:05:16.356Z,2903
2018-06-04T04:05:46.337Z,2933
2018-06-04T04:06:16.404Z,2960
2018-06-04T04:06:46.482Z,2987
2018-06-04T04:07:16.466Z,3040
2018-06-04T04:07:46.513Z,3070
2018-06-04T04:08:16.539Z,3113
2018-06-04T04:08:46.518Z,3160
2018-06-04T04:09:16.604Z,3223
2018-06-04T04:09:46.604Z,3263
2018-06-04T04:10:16.652Z,3303
2018-06-04T04:10:46.673Z,3363
2018-06-04T04:11:16.711Z,3420
2018-06-04T04:11:46.716Z,3460
2018-06-04T04:12:16.771Z,3493
2018-06-04T04:12:46.825Z,3550
2018-06-04T04:13:16.799Z,3600
2018-06-04T04:13:46.830Z,3667
2018-06-04T04:14:16.866Z,3690
2018-06-04T04:14:46.890Z,3713
2018-06-04T04:15:16.986Z,3757
2018-06-04T04:15:47.005Z,3803
2018-06-04T04:16:16.984Z,3860
2018-06-04T04:16:47.012Z,3907
2018-06-04T04:17:17.054Z,3930
2018-06-04T04:17:47.067Z,3953
2018-06-04T04:18:17.115Z,4010
2018-06-04T04:18:47.129Z,4053
2018-06-04T04:19:17.207Z,4000
2018-06-04T04:19:47.258Z,4010
2018-06-04T04:20:17.231Z,4040
2018-06-04T04:20:47.288Z,4083
2018-06-04T04:21:17.334Z,4180
2018-06-04T04:21:47.364Z,4223
2018-06-04T04:22:17.354Z,4207
2018-06-04T04:22:47.454Z,4177
2018-06-04T04:23:17.449Z,4277
2018-06-04T04:23:47.485Z,4343
2018-06-04T04:24:17.548Z,4370
2018-06-04T04:24:47.524Z,4433
2018-06-04T04:25:17.546Z,4487
2018-06-04T04:25:47.617Z,4550
2018-06-04T04:26:17.622Z,4650
2018-06-04T04:26:47.690Z,4693
2018-06-04T04:27:17.653Z,4733
2018-06-04T04:27:47.748Z,4773
2018-06-04T04:28:17.727Z,4823
2018-06-04T04:28:47.770Z,4873
2018-06-04T04:29:17.787Z,4907
2018-06-04T04:29:47.833Z,4900
2018-06-04T04:30:17.873Z,4913
2018-06-04T04:30:47.879Z,4940
2018-06-04T04:31:17.916Z,4947
2018-06-04T04:31:47.958Z,4970
2018-06-04T04:32:17.959Z,4997
2018-06-04T04:32:48.034Z,5027
2018-06-04T04:33:18.029Z,5057
2018-06-04T04:33:48.103Z,5087
2018-06-04T04:34:18.129Z,5120
2018-06-04T04:34:48.148Z,5160
2018-06-04T04:35:18.206Z,5200
2018-06-04T04:35:48.184Z,5240
2018-06-04T04:36:18.257Z,5280
2018-06-04T04:36:48.287Z,5323
2018-06-04T04:37:18.283Z,5360
2018-06-04T04:37:48.359Z,5400
2018-06-04T04:38:18.385Z,5440
2018-06-04T04:38:48.412Z,5480
2018-06-04T04:39:18.472Z,5527
2018-06-04T04:39:48.454Z,5563
2018-06-04T04:40:18.449Z,5603
2018-06-04T04:40:48.533Z,5643
2018-06-04T04:41:18.573Z,5683
2018-06-04T04:41:48.644Z,5717
2018-06-04T04:42:18.638Z,5750
2018-06-04T04:42:48.657Z,5780
2018-06-04T04:43:18.673Z,5820
2018-06-04T04:43:48.694Z,5867
2018-06-04T04:44:18.721Z,5910
2018-06-04T04:44:48.772Z,5950
2018-06-04T04:45:18.839Z,5990
2018-06-04T04:45:48.824Z,6033
2018-06-04T04:46:18.866Z,6073
2018-06-04T04:46:48.918Z,6107
2018-06-04T04:47:18.916Z,6147
2018-06-04T04:47:48.968Z,6180
2018-06-04T04:48:18.976Z,6203
2018-06-04T04:48:49.009Z,6233
2018-06-04T04:49:19.048Z,6253
2018-06-04T04:49:49.100Z,6273
2018-06-04T04:50:19.108Z,6297
2018-06-04T04:50:49.180Z,6320
2018-06-04T04:51:19.171Z,6347
2018-06-04T04:51:49.266Z,6380
2018-06-04T04:52:19.256Z,6403
2018-06-04T04:52:49.320Z,6433
2018-06-04T04:53:19.304Z,6463
2018-06-04T04:53:49.329Z,6507
2018-06-04T04:54:19.372Z,6557
2018-06-04T04:54:49.403Z,6613
2018-06-04T04:55:19.377Z,6670
2018-06-04T04:55:49.494Z,6720
2018-06-04T04:56:19.473Z,6763
2018-06-04T04:56:49.698Z,6807
2018-06-04T04:57:19.570Z,6843
2018-06-04T04:57:49.557Z,7093
2018-06-04T04:58:19.610Z,7707
2018-06-04T04:58:49.591Z,8440
2018-06-04T04:59:19.656Z,9023
2018-06-04T04:59:49.678Z,9290
2018-06-04T05:00:19.689Z,9270
2018-06-04T05:00:49.735Z,9060
2018-06-04T05:01:19.747Z,8773
2018-06-04T05:01:49.837Z,8210
2018-06-04T05:02:19.818Z,8127
2018-06-04T05:02:49.853Z,8013
2018-06-04T05:03:19.908Z,8107
2018-06-04T05:03:49.900Z,8337
2018-06-04T05:04:19.935Z,8583
2018-06-04T05:04:49.983Z,8660
2018-06-04T05:05:20.084Z,8707
2018-06-04T05:05:50.045Z,8920
2018-06-04T05:06:20.063Z,9063
2018-06-04T05:06:50.104Z,8990
2018-06-04T05:07:20.147Z,8730
2018-06-04T05:07:50.196Z,8340
2018-06-04T05:08:20.183Z,8133
2018-06-04T05:08:50.263Z,8140
2018-06-04T05:09:20.321Z,8217
2018-06-04T05:09:50.270Z,8263
2018-06-04T05:10:20.368Z,8187
2018-06-04T05:10:50.345Z,7950
2018-06-04T05:11:20.381Z,7827
2018-06-04T05:11:50.455Z,7790
2018-06-04T05:12:20.444Z,7793
2018-06-04T05:12:50.515Z,7857
2018-06-04T05:13:20.515Z,7957
2018-06-04T05:13:50.614Z,8000
2018-06-04T05:14:20.560Z,8010
2018-06-04T05:14:50.662Z,8050
2018-06-04T05:15:20.692Z,8113
2018-06-04T05:15:50.643Z,8133
2018-06-04T05:16:20.701Z,8153
2018-06-04T05:16:50.700Z,8233
2018-06-04T05:17:20.734Z,8457
2018-06-04T05:17:50.791Z,8717
2018-06-04T05:18:20.817Z,8777
2018-06-04T05:18:50.857Z,9123
2018-06-04T05:19:20.898Z,9020
2018-06-04T05:19:50.889Z,9313
2018-06-04T05:20:20.989Z,9027
2018-06-04T05:20:50.952Z,9300
2018-06-04T05:21:21.014Z,9927
2018-06-04T05:21:51.063Z,10787
2018-06-04T05:22:21.125Z,10447
2018-06-04T05:22:51.109Z,10580
2018-06-04T05:23:21.186Z,10180
2018-06-04T05:23:51.187Z,9557
2018-06-04T05:24:21.205Z,9273
2018-06-04T05:24:51.279Z,9373
2018-06-04T05:25:21.266Z,9327
2018-06-04T05:25:51.323Z,9710
2018-06-04T05:26:21.410Z,10323
2018-06-04T05:26:51.425Z,10027
2018-06-04T05:27:21.439Z,9690
2018-06-04T05:27:51.425Z,9660
2018-06-04T05:28:21.475Z,9903
2018-06-04T05:28:51.500Z,9797
2018-06-04T05:29:21.542Z,9850
2018-06-04T05:29:51.611Z,9557
2018-06-04T05:30:21.667Z,9363
2018-06-04T05:30:51.634Z,9910
2018-06-04T05:31:21.735Z,9930
2018-06-04T05:31:51.754Z,10177
2018-06-04T05:32:21.742Z,9900
2018-06-04T05:32:51.763Z,9833
2018-06-04T05:33:21.767Z,9433
2018-06-04T05:33:51.831Z,9483
2018-06-04T05:34:21.861Z,9517
2018-06-04T05:34:51.873Z,9830
2018-06-04T05:35:21.990Z,10110
2018-06-04T05:35:51.976Z,9977
2018-06-04T05:36:22.072Z,9683
2018-06-04T05:36:52.038Z,9597
2018-06-04T05:37:21.996Z,9693
2018-06-04T05:37:52.024Z,9897
2018-06-04T05:38:22.059Z,10040
2018-06-04T05:38:52.149Z,10123
2018-06-04T05:39:22.145Z,10113
2018-06-04T05:39:52.176Z,10100
2018-06-04T05:40:22.238Z,9957
2018-06-04T05:40:52.243Z,10270
2018-06-04T05:41:22.289Z,10293
2018-06-04T05:41:52.347Z,10250
2018-06-04T05:42:22.373Z,10397
2018-06-04T05:42:52.408Z,10650
2018-06-04T05:43:22.377Z,10790
2018-06-04T05:43:52.419Z,10677
2018-06-04T05:44:22.464Z,10700
2018-06-04T05:44:52.564Z,10877
2018-06-04T05:45:22.508Z,10867
2018-06-04T05:45:52.570Z,10923
2018-06-04T05:46:22.604Z,11023
2018-06-04T05:46:52.661Z,10687
2018-06-04T05:47:22.646Z,10940
2018-06-04T05:47:52.651Z,11157
2018-06-04T05:48:22.669Z,11117
2018-06-04T05:48:52.692Z,10880
2018-06-04T05:49:22.725Z,10527
2018-06-04T05:49:52.782Z,10643
2018-06-04T05:50:22.782Z,10850
2018-06-04T05:50:52.824Z,11663
2018-06-04T05:51:22.856Z,10957
2018-06-04T05:51:52.922Z,10790
2018-06-04T05:52:22.918Z,11073
2018-06-04T05:52:52.966Z,11320
2018-06-04T05:53:22.970Z,12007
2018-06-04T05:53:53.031Z,12557
2018-06-04T05:54:23.085Z,12053
2018-06-04T05:54:53.089Z,13620
2018-06-04T05:55:23.147Z,12520
2018-06-04T05:55:53.157Z,13353
2018-06-04T05:56:23.164Z,12720
2018-06-04T05:56:53.239Z,12607
2018-06-04T05:57:23.220Z,12437
2018-06-04T05:57:53.398Z,12190
2018-06-04T05:58:23.387Z,12570
2018-06-04T05:58:53.425Z,12890
2018-06-04T05:59:23.443Z,13147
2018-06-04T05:59:53.511Z,13137
2018-06-04T06:00:23.550Z,12813
2018-06-04T06:00:53.537Z,13590
2018-06-04T06:01:23.559Z,13610
2018-06-04T06:01:53.602Z,13580
2018-06-04T06:02:23.657Z,13983
2018-06-04T06:02:53.645Z,12187
2018-06-04T06:03:23.693Z,12643
2018-06-04T06:03:53.697Z,12010
2018-06-04T06:04:23.752Z,12190
2018-06-04T06:04:53.761Z,12347
2018-06-04T06:05:23.839Z,12877
2018-06-04T06:05:53.820Z,12753
2018-06-04T06:06:23.881Z,12340
2018-06-04T06:06:53.952Z,11967
2018-06-04T06:07:23.906Z,11773
2018-06-04T06:07:53.945Z,11707
2018-06-04T06:08:23.971Z,11683
2018-06-04T06:08:54.000Z,11643
2018-06-04T06:09:24.028Z,11527
2018-06-04T06:09:54.094Z,11457
2018-06-04T06:10:24.162Z,11437
2018-06-04T06:10:54.171Z,11400
2018-06-04T06:11:24.159Z,11397
2018-06-04T06:11:54.199Z,11380
2018-06-04T06:12:24.323Z,11643
2018-06-04T06:12:54.266Z,11700
2018-06-04T06:13:24.317Z,11740
2018-06-04T06:13:54.322Z,11810
2018-06-04T06:14:24.426Z,11793
2018-06-04T06:14:54.428Z,11643
2018-06-04T06:15:24.457Z,11603
2018-06-04T06:15:54.495Z,11560
2018-06-04T06:16:24.542Z,11557
2018-06-04T06:16:54.520Z,11587
2018-06-04T06:17:24.537Z,11620
2018-06-04T06:17:54.635Z,11697
2018-06-04T06:18:24.650Z,11780
2018-06-04T06:18:54.694Z,11857
2018-06-04T06:19:24.735Z,11870
2018-06-04T06:19:54.734Z,11853
2018-06-04T06:20:24.818Z,11817
2018-06-04T06:20:54.782Z,11810
2018-06-04T06:21:24.835Z,11807
2018-06-04T06:21:54.894Z,11910
2018-06-04T06:22:24.864Z,11970
2018-06-04T06:22:54.943Z,12073
2018-06-04T06:23:24.892Z,12533
2018-06-04T06:23:54.970Z,12667
2018-06-04T06:24:25.024Z,12620
2018-06-04T06:24:55.081Z,12947
2018-06-04T06:25:25.158Z,12790
2018-06-04T06:25:55.136Z,12787
2018-06-04T06:26:25.160Z,12633
2018-06-04T06:26:55.172Z,12523
2018-06-04T06:27:25.162Z,12257
2018-06-04T06:27:55.207Z,12247
2018-06-04T06:28:25.262Z,12153
2018-06-04T06:28:55.255Z,12103
2018-06-04T06:29:25.321Z,12087
2018-06-04T06:29:55.322Z,12130
2018-06-04T06:30:25.381Z,12097
2018-06-04T06:30:55.438Z,12277
2018-06-04T06:31:25.430Z,12400
2018-06-04T06:31:55.519Z,12493
2018-06-04T06:32:25.488Z,12503
2018-06-04T06:32:55.560Z,12513
2018-06-04T06:33:55.596Z,12530
2018-06-04T06:34:25.601Z,12583
2018-06-04T06:34:55.606Z,12683
2018-06-04T06:35:25.640Z,12800
2018-06-04T06:35:55.671Z,12953
2018-06-04T06:36:25.752Z,13097
2018-06-04T06:36:55.758Z,13247
2018-06-04T06:37:25.842Z,13290
2018-06-04T06:37:55.812Z,13623
2018-06-04T06:38:25.821Z,13843
2018-06-04T06:38:55.868Z,13553
2018-06-04T06:39:25.947Z,13990
2018-06-04T06:39:55.922Z,14230
2018-06-04T06:40:26.009Z,14303
2018-06-04T06:40:55.973Z,14720
2018-06-04T06:41:26.029Z,15937
2018-06-04T06:41:56.082Z,15990
2018-06-04T06:42:26.062Z,15363
2018-06-04T06:42:56.112Z,14577
2018-06-04T06:43:26.142Z,13600
2018-06-04T06:43:56.372Z,13207
2018-06-04T06:44:26.465Z,13160
2018-06-04T06:44:56.497Z,13420
2018-06-04T06:45:26.670Z,14120
2018-06-04T06:45:56.625Z,14487
2018-06-04T06:46:27.699Z,14997
2018-06-04T06:46:57.142Z,14977
2018-06-04T06:47:27.207Z,14520
2018-06-04T06:47:57.250Z,14200
2018-06-04T06:48:27.281Z,14030
2018-06-04T06:48:57.325Z,14470
2018-06-04T06:49:27.345Z,14540
2018-06-04T06:49:57.369Z,14657
2018-06-04T06:50:27.400Z,15577
2018-06-04T06:50:57.475Z,15540
2018-06-04T06:51:27.500Z,15113
2018-06-04T06:51:57.500Z,15300
2018-06-04T06:52:27.507Z,16800
2018-06-04T06:52:57.551Z,15463
2018-06-04T06:53:27.561Z,15803
2018-06-04T06:53:57.613Z,15533
2018-06-04T06:54:27.665Z,15980
2018-06-04T06:54:57.670Z,15753
2018-06-04T06:55:27.757Z,15583
2018-06-04T06:55:57.754Z,15110
2018-06-04T06:56:27.785Z,15147
2018-06-04T06:56:57.793Z,14830
2018-06-04T06:57:27.790Z,15067
2018-06-04T06:57:57.850Z,16623
2018-06-04T06:58:27.844Z,15457
2018-06-04T06:58:57.915Z,15407
2018-06-04T06:59:27.949Z,15323
2018-06-04T06:59:57.991Z,15230
2018-06-04T07:00:28.009Z,14670
2018-06-04T07:00:58.037Z,14817
2018-06-04T07:01:28.097Z,15257
2018-06-04T07:01:58.141Z,16013
2018-06-04T07:02:28.106Z,16533
2018-06-04T07:02:58.157Z,16700
2018-06-04T07:03:28.230Z,16770
2018-06-04T07:03:58.214Z,16497
2018-06-04T07:04:28.280Z,16773
2018-06-04T07:04:58.313Z,15697
2018-06-04T07:05:28.323Z,14687
2018-06-04T07:05:58.365Z,15597
2018-06-04T07:06:28.407Z,16447
2018-06-04T07:06:58.517Z,15363
2018-06-04T07:07:28.531Z,14493
2018-06-04T07:07:58.498Z,14753
2018-06-04T07:08:28.587Z,14440
2018-06-04T07:08:58.536Z,14483
2018-06-04T07:09:28.591Z,14740
2018-06-04T07:09:58.572Z,14940
2018-06-04T07:10:28.647Z,15070
2018-06-04T07:10:58.753Z,14960
2018-06-04T07:11:28.792Z,15317
2018-06-04T07:11:59.202Z,16687
2018-06-04T07:12:29.147Z,19877
2018-06-04T07:12:59.187Z,23463
2018-06-04T07:13:29.212Z,25133
2018-06-04T07:13:59.276Z,25367
2018-06-04T07:14:29.331Z,25543
2018-06-04T07:14:59.312Z,25730
2018-06-04T07:15:29.332Z,27623
2018-06-04T07:15:59.365Z,28287
2018-06-04T07:16:29.417Z,27260
2018-06-04T07:16:59.428Z,27650
2018-06-04T07:17:29.492Z,26517
2018-06-04T07:17:59.486Z,25917
2018-06-04T07:18:29.604Z,27253
2018-06-04T07:18:59.574Z,25867
2018-06-04T07:19:29.571Z,24957
2018-06-04T07:19:59.587Z,25683
2018-06-04T07:20:29.640Z,28433
2018-06-04T07:20:59.658Z,33043
2018-06-04T07:21:29.744Z,34467
2018-06-04T07:21:59.712Z,35423
2018-06-04T07:22:29.731Z,35830
2018-06-04T07:22:59.788Z,36263
2018-06-04T07:23:29.832Z,36303
2018-06-04T07:23:59.832Z,36117
2018-06-04T07:24:29.855Z,36030
2018-06-04T07:25:00.001Z,36020
2018-06-04T07:25:30.063Z,36413
2018-06-04T07:25:59.951Z,36423
2018-06-04T07:26:30.361Z,36493
2018-06-04T07:27:00.029Z,36247
2018-06-04T07:27:30.127Z,36713
2018-06-04T07:28:00.081Z,36980
2018-06-04T07:28:30.109Z,37107
2018-06-04T07:29:00.176Z,36993
2018-06-04T07:29:30.184Z,37320
2018-06-04T07:30:01.376Z,37613
2018-06-04T07:30:30.298Z,37470
2018-06-04T07:31:01.312Z,37507
2018-06-04T07:31:30.308Z,37377
2018-06-04T07:32:01.702Z,36600
2018-06-04T07:32:30.371Z,35283
2018-06-04T07:33:01.707Z,36217
2018-06-04T07:33:30.450Z,37333
2018-06-04T07:34:01.540Z,37793
2018-06-04T07:34:30.524Z,37943
2018-06-04T07:35:01.036Z,38003
2018-06-04T07:35:30.576Z,38373
2018-06-04T07:36:01.402Z,38327
2018-06-04T07:36:30.686Z,38400
2018-06-04T07:37:01.657Z,38553
2018-06-04T07:37:30.705Z,38173
2018-06-04T07:38:01.601Z,38927
2018-06-04T07:38:30.813Z,39237
2018-06-04T07:39:01.778Z,39163
2018-06-04T07:39:30.790Z,39250
2018-06-04T07:40:01.018Z,39050
2018-06-04T07:40:30.852Z,38550
2018-06-04T07:41:01.727Z,39383
2018-06-04T07:41:31.201Z,38980
2018-06-04T07:42:01.673Z,38770
2018-06-04T07:42:31.333Z,39623
2018-06-04T07:43:01.668Z,39643
2018-06-04T07:43:31.342Z,39813
2018-06-04T07:44:01.602Z,39963
2018-06-04T07:44:31.462Z,40210
2018-06-04T07:45:01.433Z,40317
2018-06-04T07:45:31.570Z,40320
2018-06-04T07:46:01.492Z,40523
2018-06-04T07:46:31.545Z,40693
2018-06-04T07:47:01.559Z,41070
2018-06-04T07:47:31.649Z,41163
2018-06-04T07:48:01.598Z,41357
2018-06-04T07:48:31.662Z,41407
2018-06-04T07:49:02.419Z,41570
2018-06-04T07:49:31.738Z,41410
2018-06-04T07:50:01.724Z,41630
2018-06-04T07:50:31.802Z,41763
2018-06-04T07:51:01.855Z,41677
2018-06-04T07:51:31.856Z,40937
2018-06-04T07:52:02.338Z,41227
2018-06-04T07:52:32.166Z,41263
2018-06-04T07:53:02.315Z,41507
2018-06-04T07:53:32.214Z,42113
2018-06-04T07:54:02.262Z,42090
2018-06-04T07:54:32.280Z,41350
2018-06-04T07:55:02.348Z,42277
2018-06-04T07:55:32.367Z,41930
2018-06-04T07:56:02.401Z,41973
2018-06-04T07:56:32.411Z,41943
2018-06-04T07:57:02.707Z,42173
2018-06-04T07:57:32.725Z,42253
2018-06-04T07:58:02.757Z,42570
2018-06-04T07:58:32.829Z,42760
2018-06-04T07:59:03.602Z,43167
2018-06-04T07:59:33.822Z,43317
2018-06-04T08:00:03.718Z,43603
2018-06-04T08:00:33.772Z,43527
2018-06-04T08:01:03.770Z,43407
2018-06-04T08:01:33.797Z,43727
2018-06-04T08:02:03.847Z,44220
2018-06-04T08:02:33.885Z,44617
2018-06-04T08:03:03.909Z,44627
2018-06-04T08:03:33.919Z,44290
2018-06-04T08:04:04.181Z,44013
2018-06-04T08:04:33.993Z,43900
2018-06-04T08:05:04.045Z,44267
2018-06-04T08:05:34.044Z,44427
2018-06-04T08:06:04.112Z,44557
2018-06-04T08:06:34.161Z,44530
2018-06-04T08:07:04.112Z,43920
2018-06-04T08:07:34.176Z,43853
2018-06-04T08:08:04.273Z,43440
2018-06-04T08:08:34.234Z,42493
2018-06-04T08:09:04.285Z,39980
2018-06-04T08:09:34.289Z,45607
2018-06-04T08:10:04.382Z,46010
2018-06-04T08:10:34.384Z,46610
2018-06-04T08:11:04.372Z,46363
2018-06-04T08:11:34.436Z,46840
2018-06-04T08:12:04.465Z,46960
2018-06-04T08:12:34.469Z,46143
2018-06-04T08:13:04.488Z,45903
2018-06-04T08:13:34.569Z,45897
2018-06-04T08:14:04.572Z,46617
2018-06-04T08:14:34.618Z,46650
2018-06-04T08:15:04.584Z,47363
2018-06-04T08:15:34.643Z,47910
2018-06-04T08:16:04.653Z,48217
2018-06-04T08:16:34.728Z,48397
2018-06-04T08:17:04.728Z,48447
2018-06-04T08:17:34.785Z,48323
2018-06-04T08:18:04.911Z,48303
2018-06-04T08:18:34.832Z,47867
2018-06-04T08:19:04.896Z,48287
2018-06-04T08:19:34.898Z,48433
2018-06-04T08:20:04.903Z,48060
2018-06-04T08:20:34.948Z,48110
2018-06-04T08:21:04.967Z,47327
2018-06-04T08:21:35.034Z,48010
2018-06-04T08:22:05.032Z,47897
2018-06-04T08:22:35.099Z,47970
2018-06-04T08:23:05.122Z,48550
2018-06-04T08:23:35.168Z,47783
2018-06-04T08:24:05.318Z,48553
2018-06-04T08:24:35.242Z,48523
2018-06-04T08:25:05.247Z,49160
2018-06-04T08:25:35.363Z,49513
2018-06-04T08:26:05.339Z,49330
2018-06-04T08:26:35.443Z,50110
2018-06-04T08:27:05.356Z,50840
2018-06-04T08:27:35.406Z,52093
2018-06-04T08:28:05.441Z,52907
2018-06-04T08:28:35.550Z,53297
2018-06-04T08:29:05.568Z,53507
2018-06-04T08:29:35.520Z,52970
2018-06-04T08:30:05.546Z,51590
2018-06-04T08:30:35.586Z,50833
2018-06-04T08:31:05.582Z,50100
2018-06-04T08:31:35.653Z,48063
2018-06-04T08:32:05.647Z,45660
2018-06-04T08:32:35.734Z,23267
2018-06-04T08:33:05.699Z,18827
2018-06-04T08:33:36.063Z,19237
2018-06-04T08:34:07.282Z,22367
2018-06-04T08:34:35.792Z,41213
2018-06-04T08:35:05.821Z,50780
2018-06-04T08:35:35.876Z,50343
2018-06-04T08:36:05.888Z,53487
2018-06-04T08:36:35.980Z,53753
2018-06-04T08:37:05.966Z,54650
2018-06-04T08:37:35.989Z,52740
2018-06-04T08:38:06.013Z,51440
2018-06-04T08:38:36.041Z,51170
2018-06-04T08:39:06.169Z,39050
2018-06-04T08:39:36.124Z,43580
2018-06-04T08:40:06.173Z,54600
2018-06-04T08:40:36.167Z,54157
2018-06-04T08:41:06.210Z,54443
2018-06-04T08:41:36.302Z,54087
2018-06-04T08:42:06.283Z,53570
2018-06-04T08:42:36.314Z,54443
2018-06-04T08:43:06.408Z,49137
2018-06-04T08:43:36.384Z,36497
2018-06-04T08:44:06.400Z,56697
2018-06-04T08:44:36.478Z,55240
2018-06-04T08:45:06.507Z,53667
2018-06-04T08:45:36.574Z,54263
2018-06-04T08:46:06.589Z,54613
2018-06-04T08:46:36.628Z,55160
2018-06-04T08:47:06.653Z,54977
2018-06-04T08:47:36.690Z,55080
2018-06-04T08:48:06.682Z,52090
2018-06-04T08:48:36.668Z,50167
2018-06-04T08:49:06.738Z,49730
2018-06-04T08:49:36.796Z,52863
2018-06-04T08:50:06.800Z,53513
2018-06-04T08:50:36.928Z,53120
2018-06-04T08:51:06.903Z,52550
2018-06-04T08:51:36.905Z,52850
2018-06-04T08:52:06.905Z,53120
2018-06-04T08:52:36.979Z,53370
2018-06-04T08:53:06.963Z,53647
2018-06-04T08:53:37.040Z,53837
2018-06-04T08:54:07.024Z,54460
2018-06-04T08:54:37.129Z,54713
2018-06-04T08:55:07.082Z,55247
2018-06-04T08:55:37.233Z,56027
2018-06-04T08:56:07.234Z,56287
2018-06-04T08:56:37.192Z,56153
2018-06-04T08:57:07.217Z,56053
2018-06-04T08:57:37.291Z,56527
2018-06-04T08:58:07.277Z,56813
2018-06-04T08:58:37.360Z,56837
2018-06-04T08:59:07.394Z,56747
2018-06-04T08:59:37.439Z,57400
2018-06-04T09:00:07.403Z,56320
2018-06-04T09:00:37.456Z,58410
2018-06-04T09:01:07.520Z,58637
2018-06-04T09:01:37.511Z,58297
2018-06-04T09:02:07.578Z,56050
2018-06-04T09:02:37.556Z,55277
2018-06-04T09:03:07.645Z,56543
2018-06-04T09:03:37.635Z,56250
2018-06-04T09:04:07.668Z,55333
2018-06-04T09:04:37.675Z,58337
2018-06-04T09:05:07.706Z,58487
2018-06-04T09:05:37.788Z,57650
2018-06-04T09:06:07.765Z,56697
2018-06-04T09:06:37.767Z,56643
2018-06-04T09:07:07.814Z,57033
2018-06-04T09:07:37.846Z,56930
2018-06-04T09:08:07.886Z,56707
2018-06-04T09:08:37.893Z,55993
2018-06-04T09:09:07.946Z,55947
2018-06-04T09:09:37.955Z,55167
2018-06-04T09:10:07.983Z,55260
2018-06-04T09:10:38.029Z,56177
2018-06-04T09:11:08.090Z,56233
2018-06-04T09:11:38.127Z,58623